Time;durP1;ratioP1;P1;durP2;ratioP2;P2;SDS_P1;SDS_P2;PMS_P1;PMS_P2;Temp;Humidity;BMP_temperature;BMP_pressure;BME280_temperature;BME280_humidity;BME280_pressure;Samples;Min_cycle;Max_cycle;Signal;HPM_P1;HPM_P2
2023/03/30 00:02:17;;;;;;;1.07;1.07;;;;;;;;;;4975509;28;20183;-55
2023/03/30 00:04:44;;;;;;;0.90;0.90;;;;;;;;;;4973423;28;20196;-56
2023/03/30 00:07:10;;;;;;;1.00;1.00;;;;;;;;;;4973032;28;20238;-54
2023/03/30 00:09:41;;;;;;;0.90;0.90;;;;;;;;;;4970352;28;20226;-57
2023/03/30 00:12:07;;;;;;;0.80;0.80;;;;;;;;;;4973524;28;20193;-56
2023/03/30 00:14:36;;;;;;;1.10;1.10;;;;;;;;;;4976868;28;20555;-55
2023/03/30 00:17:02;;;;;;;0.90;0.90;;;;;;;;;;4967520;28;20199;-56
2023/03/30 00:19:28;;;;;;;1.10;1.10;;;;;;;;;;4965238;28;20217;-56
2023/03/30 00:21:54;;;;;;;0.90;0.90;;;;;;;;;;4971039;28;20199;-54
2023/03/30 00:24:20;;;;;;;0.70;0.70;;;;;;;;;;4974461;28;20265;-55
2023/03/30 00:26:46;;;;;;;0.80;0.80;;;;;;;;;;4971944;28;20731;-56
2023/03/30 00:29:12;;;;;;;1.00;1.00;;;;;;;;;;4972391;28;20209;-55
2023/03/30 00:31:38;;;;;;;1.00;1.00;;;;;;;;;;4971380;28;20225;-55
2023/03/30 00:34:04;;;;;;;0.90;0.90;;;;;;;;;;4978035;28;20664;-54
2023/03/30 00:36:35;;;;;;;1.00;1.00;;;;;;;;;;4977682;28;20191;-54
2023/03/30 00:39:05;;;;;;;0.90;0.90;;;;;;;;;;4973149;28;20195;-56
2023/03/30 00:41:31;;;;;;;0.93;0.93;;;;;;;;;;4978304;28;20253;-55
2023/03/30 00:44:01;;;;;;;0.90;0.90;;;;;;;;;;4976310;28;20210;-54
2023/03/30 00:46:28;;;;;;;0.90;0.90;;;;;;;;;;4977860;28;20681;-54
2023/03/30 00:48:56;;;;;;;0.80;0.80;;;;;;;;;;4977504;28;20206;-55
2023/03/30 00:51:22;;;;;;;0.90;0.90;;;;;;;;;;4969006;28;20730;-55
2023/03/30 00:53:49;;;;;;;0.80;0.80;;;;;;;;;;4973098;28;20202;-56
2023/03/30 00:56:16;;;;;;;0.90;0.90;;;;;;;;;;4982251;28;20281;-55
2023/03/30 00:58:42;;;;;;;0.90;0.90;;;;;;;;;;4979011;28;20183;-55
2023/03/30 01:01:09;;;;;;;0.90;0.90;;;;;;;;;;4957532;28;20214;-54
2023/03/30 01:03:47;;;;;;;1.00;1.00;;;;;;;;;;4949744;28;20202;-55
2023/03/30 01:06:16;;;;;;;0.90;0.90;;;;;;;;;;4970048;28;20194;-55
2023/03/30 01:08:43;;;;;;;0.90;0.90;;;;;;;;;;4975872;28;20242;-55
2023/03/30 01:11:09;;;;;;;1.00;1.00;;;;;;;;;;4975280;28;20215;-54
2023/03/30 01:13:36;;;;;;;0.90;0.90;;;;;;;;;;4972872;28;20298;-55
2023/03/30 01:16:21;;;;;;;0.90;0.90;;;;;;;;;;4967785;28;20187;-54
2023/03/30 01:18:47;;;;;;;0.90;0.90;;;;;;;;;;4973277;28;20203;-58
2023/03/30 01:21:22;;;;;;;0.90;0.90;;;;;;;;;;4971148;28;20202;-55
2023/03/30 01:23:48;;;;;;;1.00;1.00;;;;;;;;;;4971441;28;20817;-54
2023/03/30 01:26:15;;;;;;;0.90;0.90;;;;;;;;;;4973687;28;20199;-55
2023/03/30 01:28:47;;;;;;;1.00;1.00;;;;;;;;;;4969892;28;20621;-55
2023/03/30 01:31:40;;;;;;;0.80;0.80;;;;;;;;;;4974641;28;20669;-57
2023/03/30 01:34:06;;;;;;;1.00;1.00;;;;;;;;;;4969600;28;20205;-56
2023/03/30 01:36:51;;;;;;;0.90;0.90;;;;;;;;;;4980002;28;20198;-55
2023/03/30 01:39:27;;;;;;;0.83;0.83;;;;;;;;;;4977086;28;20666;-55
2023/03/30 01:41:53;;;;;;;0.90;0.90;;;;;;;;;;4973235;28;20659;-56
2023/03/30 01:44:30;;;;;;;0.90;0.90;;;;;;;;;;4967630;28;20248;-55
2023/03/30 01:47:01;;;;;;;1.00;1.00;;;;;;;;;;4974022;28;20200;-56
2023/03/30 01:49:27;;;;;;;0.90;0.90;;;;;;;;;;4971126;28;20346;-55
2023/03/30 01:52:04;;;;;;;0.90;0.90;;;;;;;;;;4977015;28;20195;-54
2023/03/30 01:54:37;;;;;;;0.90;0.90;;;;;;;;;;4969803;28;20193;-55
2023/03/30 01:57:09;;;;;;;0.97;0.97;;;;;;;;;;4971048;28;20442;-55
2023/03/30 01:59:41;;;;;;;0.80;0.80;;;;;;;;;;4968041;28;20198;-56
2023/03/30 02:02:08;;;;;;;0.93;0.93;;;;;;;;;;4957141;28;20305;-55
2023/03/30 02:04:35;;;;;;;0.70;0.70;;;;;;;;;;4969957;28;20318;-56
2023/03/30 02:07:08;;;;;;;0.80;0.80;;;;;;;;;;4968527;28;20241;-56
2023/03/30 02:09:34;;;;;;;0.90;0.90;;;;;;;;;;4975099;28;20598;-54
2023/03/30 02:12:00;;;;;;;0.90;0.90;;;;;;;;;;4972116;28;20190;-56
2023/03/30 02:14:27;;;;;;;1.00;1.00;;;;;;;;;;4955923;28;20194;-55
2023/03/30 02:16:55;;;;;;;0.90;0.90;;;;;;;;;;4972185;28;20194;-55
2023/03/30 02:19:21;;;;;;;0.80;0.80;;;;;;;;;;4971865;28;20237;-54
2023/03/30 02:21:49;;;;;;;0.90;0.90;;;;;;;;;;4977954;28;20296;-56
2023/03/30 02:24:17;;;;;;;0.90;0.90;;;;;;;;;;4963816;28;20663;-54
2023/03/30 02:26:50;;;;;;;0.90;0.90;;;;;;;;;;4977069;28;20582;-55
2023/03/30 02:29:16;;;;;;;1.00;1.00;;;;;;;;;;4967884;28;20331;-55
2023/03/30 02:31:43;;;;;;;0.90;0.90;;;;;;;;;;4967955;28;20198;-55
2023/03/30 02:34:09;;;;;;;0.90;0.90;;;;;;;;;;4968004;28;20617;-55
2023/03/30 02:36:46;;;;;;;0.90;0.90;;;;;;;;;;4975228;28;20659;-55
2023/03/30 02:39:12;;;;;;;0.90;0.90;;;;;;;;;;4969513;28;20284;-55
2023/03/30 02:41:55;;;;;;;1.00;1.00;;;;;;;;;;4975860;28;20273;-55
2023/03/30 02:44:31;;;;;;;0.90;0.90;;;;;;;;;;4971263;28;20195;-57
2023/03/30 02:47:05;;;;;;;0.70;0.70;;;;;;;;;;4961568;28;20659;-55
2023/03/30 02:49:40;;;;;;;1.00;1.00;;;;;;;;;;4972438;28;20230;-55
2023/03/30 02:52:13;;;;;;;0.90;0.90;;;;;;;;;;4976918;28;20198;-56
2023/03/30 02:54:46;;;;;;;0.93;0.93;;;;;;;;;;4973419;28;20186;-55
2023/03/30 02:57:14;;;;;;;0.90;0.90;;;;;;;;;;4963586;28;20200;-55
2023/03/30 02:59:56;;;;;;;0.70;0.70;;;;;;;;;;4962054;28;20205;-54
2023/03/30 03:02:23;;;;;;;1.00;1.00;;;;;;;;;;4976434;28;21629;-58
2023/03/30 03:04:49;;;;;;;0.90;0.90;;;;;;;;;;4957307;28;20229;-55
2023/03/30 03:07:15;;;;;;;1.00;1.00;;;;;;;;;;4972973;28;20234;-55
2023/03/30 03:09:41;;;;;;;0.90;0.90;;;;;;;;;;4960786;28;21210;-58
2023/03/30 03:12:07;;;;;;;0.90;0.90;;;;;;;;;;4975340;28;20195;-54
2023/03/30 03:14:33;;;;;;;0.90;0.90;;;;;;;;;;4973572;28;20194;-55
2023/03/30 03:16:59;;;;;;;1.00;1.00;;;;;;;;;;4970689;28;21135;-55
2023/03/30 03:19:25;;;;;;;1.00;1.00;;;;;;;;;;4978165;28;20229;-55
2023/03/30 03:21:51;;;;;;;0.90;0.90;;;;;;;;;;4972408;28;20209;-57
2023/03/30 03:24:17;;;;;;;1.07;1.07;;;;;;;;;;4968320;28;20725;-56
2023/03/30 03:26:44;;;;;;;0.90;0.90;;;;;;;;;;4977582;28;20581;-55
2023/03/30 03:29:10;;;;;;;1.00;1.00;;;;;;;;;;4974955;28;20241;-54
2023/03/30 03:31:36;;;;;;;0.97;0.97;;;;;;;;;;4975141;28;20197;-56
2023/03/30 03:34:02;;;;;;;0.90;0.90;;;;;;;;;;4976330;28;20241;-56
2023/03/30 03:36:29;;;;;;;0.90;0.90;;;;;;;;;;4976527;28;20655;-55
2023/03/30 03:38:55;;;;;;;0.90;0.90;;;;;;;;;;4974710;28;20203;-55
2023/03/30 03:41:21;;;;;;;1.00;1.00;;;;;;;;;;4973512;28;20293;-56
2023/03/30 03:43:47;;;;;;;0.90;0.90;;;;;;;;;;4969049;28;21150;-55
2023/03/30 03:46:13;;;;;;;0.90;0.90;;;;;;;;;;4974450;28;20643;-55
2023/03/30 03:48:39;;;;;;;1.03;1.03;;;;;;;;;;4972820;28;20207;-56
2023/03/30 03:51:05;;;;;;;0.90;0.90;;;;;;;;;;4980592;28;20190;-58
2023/03/30 03:53:31;;;;;;;0.90;0.90;;;;;;;;;;4973656;28;20222;-57
2023/03/30 03:55:57;;;;;;;0.80;0.80;;;;;;;;;;4978621;28;20654;-55
2023/03/30 03:58:24;;;;;;;0.90;0.90;;;;;;;;;;4972528;28;20183;-56
2023/03/30 04:00:50;;;;;;;0.90;0.90;;;;;;;;;;4969870;28;20252;-55
2023/03/30 04:03:16;;;;;;;0.70;0.70;;;;;;;;;;4969681;28;20556;-55
2023/03/30 04:05:42;;;;;;;0.90;0.90;;;;;;;;;;4970668;28;20191;-55
2023/03/30 04:08:11;;;;;;;0.80;0.80;;;;;;;;;;4963196;28;20245;-56
2023/03/30 04:10:37;;;;;;;0.80;0.80;;;;;;;;;;4974206;28;20190;-55
2023/03/30 04:13:03;;;;;;;0.90;0.90;;;;;;;;;;4978538;28;20195;-55
2023/03/30 04:15:29;;;;;;;0.90;0.90;;;;;;;;;;4965232;28;20743;-55
2023/03/30 04:17:58;;;;;;;1.00;1.00;;;;;;;;;;4968305;28;20273;-58
2023/03/30 04:20:25;;;;;;;0.80;0.80;;;;;;;;;;4971402;28;20194;-57
2023/03/30 04:22:52;;;;;;;1.00;1.00;;;;;;;;;;4959403;28;20328;-56
2023/03/30 04:25:20;;;;;;;0.90;0.90;;;;;;;;;;4968068;28;20231;-55
2023/03/30 04:27:50;;;;;;;0.90;0.90;;;;;;;;;;4962765;28;21920;-56
2023/03/30 04:30:16;;;;;;;0.90;0.90;;;;;;;;;;4965272;28;20202;-55
2023/03/30 04:32:43;;;;;;;0.70;0.70;;;;;;;;;;4966805;28;20242;-56
2023/03/30 04:35:09;;;;;;;0.90;0.90;;;;;;;;;;4974395;28;20218;-56
2023/03/30 04:37:36;;;;;;;0.80;0.80;;;;;;;;;;4965361;28;20187;-55
2023/03/30 04:40:06;;;;;;;1.00;1.00;;;;;;;;;;4966978;28;20186;-56
2023/03/30 04:42:36;;;;;;;0.90;0.90;;;;;;;;;;4972306;28;20688;-58
2023/03/30 04:45:09;;;;;;;0.80;0.80;;;;;;;;;;4968402;28;20197;-57
2023/03/30 04:47:35;;;;;;;0.80;0.80;;;;;;;;;;4971791;28;20194;-55
2023/03/30 04:50:01;;;;;;;0.90;0.90;;;;;;;;;;4969014;28;20190;-55
2023/03/30 04:52:27;;;;;;;0.90;0.90;;;;;;;;;;4972433;28;20182;-57
2023/03/30 04:54:53;;;;;;;0.90;0.90;;;;;;;;;;4970530;28;20644;-56
2023/03/30 04:57:19;;;;;;;0.80;0.80;;;;;;;;;;4964115;28;20571;-55
2023/03/30 04:59:45;;;;;;;0.80;0.80;;;;;;;;;;4970482;28;20210;-57
2023/03/30 05:02:11;;;;;;;0.90;0.90;;;;;;;;;;4972784;28;20846;-56
2023/03/30 05:04:37;;;;;;;0.90;0.90;;;;;;;;;;4967606;28;20570;-56
2023/03/30 05:07:03;;;;;;;0.90;0.90;;;;;;;;;;4963351;28;20229;-55
2023/03/30 05:09:29;;;;;;;0.80;0.80;;;;;;;;;;4970203;28;20568;-57
2023/03/30 05:11:55;;;;;;;0.90;0.90;;;;;;;;;;4960258;28;20249;-56
2023/03/30 05:14:21;;;;;;;0.80;0.80;;;;;;;;;;4972989;28;20206;-55
2023/03/30 05:16:47;;;;;;;0.80;0.80;;;;;;;;;;4965729;28;20264;-55
2023/03/30 05:19:13;;;;;;;0.80;0.80;;;;;;;;;;4963102;28;20205;-57
2023/03/30 05:21:39;;;;;;;1.00;1.00;;;;;;;;;;4972659;28;20198;-55
2023/03/30 05:24:06;;;;;;;0.70;0.70;;;;;;;;;;4971360;28;20205;-56
2023/03/30 05:26:32;;;;;;;0.90;0.90;;;;;;;;;;4971233;28;20622;-55
2023/03/30 05:28:57;;;;;;;0.70;0.70;;;;;;;;;;4972443;28;20228;-55
2023/03/30 05:31:23;;;;;;;0.80;0.80;;;;;;;;;;4970301;28;20195;-59
2023/03/30 05:33:51;;;;;;;0.80;0.80;;;;;;;;;;4963106;28;20647;-57
2023/03/30 05:36:17;;;;;;;0.80;0.80;;;;;;;;;;4967399;28;20706;-57
2023/03/30 05:38:42;;;;;;;0.70;0.70;;;;;;;;;;4973720;28;20194;-56
2023/03/30 05:41:08;;;;;;;0.80;0.80;;;;;;;;;;4977497;28;20190;-57
2023/03/30 05:43:35;;;;;;;0.70;0.70;;;;;;;;;;4977721;28;20212;-57
2023/03/30 05:46:01;;;;;;;0.80;0.80;;;;;;;;;;4974064;28;20213;-57
2023/03/30 05:48:27;;;;;;;1.00;1.00;;;;;;;;;;4974536;28;20412;-56
2023/03/30 05:50:53;;;;;;;0.80;0.80;;;;;;;;;;4971334;28;20274;-57
2023/03/30 05:53:19;;;;;;;0.90;0.90;;;;;;;;;;4973433;28;20629;-57
2023/03/30 05:55:46;;;;;;;0.80;0.80;;;;;;;;;;4976617;28;20265;-57
2023/03/30 05:58:12;;;;;;;0.97;0.97;;;;;;;;;;4976880;28;20199;-56
2023/03/30 06:00:40;;;;;;;1.00;1.00;;;;;;;;;;4972183;28;20563;-58
2023/03/30 06:03:06;;;;;;;0.90;0.90;;;;;;;;;;4978457;28;20199;-57
2023/03/30 06:05:32;;;;;;;1.00;1.00;;;;;;;;;;4977405;28;20208;-57
2023/03/30 06:07:59;;;;;;;0.90;0.90;;;;;;;;;;4962730;28;20248;-58
2023/03/30 06:10:25;;;;;;;0.90;0.90;;;;;;;;;;4970456;28;20194;-57
2023/03/30 06:12:51;;;;;;;1.03;1.03;;;;;;;;;;4971889;28;20202;-56
2023/03/30 06:15:17;;;;;;;0.90;0.90;;;;;;;;;;4964815;28;20191;-57
2023/03/30 06:17:43;;;;;;;0.80;0.80;;;;;;;;;;4962517;28;20199;-57
2023/03/30 06:20:12;;;;;;;0.90;0.90;;;;;;;;;;4973110;28;20300;-57
2023/03/30 06:22:40;;;;;;;0.90;0.90;;;;;;;;;;4977566;28;20210;-57
2023/03/30 06:25:06;;;;;;;1.00;1.00;;;;;;;;;;4975377;28;20625;-57
2023/03/30 06:27:32;;;;;;;0.90;0.90;;;;;;;;;;4979440;28;20198;-58
2023/03/30 06:29:58;;;;;;;1.00;1.00;;;;;;;;;;4975160;28;20206;-57
2023/03/30 06:32:24;;;;;;;0.93;0.93;;;;;;;;;;4971678;28;20190;-57
2023/03/30 06:34:51;;;;;;;0.90;0.90;;;;;;;;;;4977685;28;20190;-57
2023/03/30 06:37:18;;;;;;;0.80;0.80;;;;;;;;;;4975990;28;20194;-57
2023/03/30 06:39:44;;;;;;;0.90;0.90;;;;;;;;;;4976398;28;20201;-57
2023/03/30 06:42:10;;;;;;;1.10;1.10;;;;;;;;;;4980398;28;20190;-57
2023/03/30 06:44:36;;;;;;;1.10;1.10;;;;;;;;;;4980288;28;20199;-57
2023/03/30 06:47:03;;;;;;;1.10;1.10;;;;;;;;;;4979208;28;20219;-57
2023/03/30 06:49:29;;;;;;;1.00;1.00;;;;;;;;;;4980073;28;20353;-57
2023/03/30 06:51:55;;;;;;;1.00;1.00;;;;;;;;;;4976214;28;20210;-56
2023/03/30 06:54:22;;;;;;;0.90;0.90;;;;;;;;;;4979155;28;20713;-59
2023/03/30 06:56:48;;;;;;;1.00;1.00;;;;;;;;;;4984314;28;20331;-57
2023/03/30 06:59:14;;;;;;;0.90;0.90;;;;;;;;;;4975470;28;20663;-57
2023/03/30 07:01:40;;;;;;;0.90;0.90;;;;;;;;;;4979658;28;20206;-56
2023/03/30 07:04:06;;;;;;;0.90;0.90;;;;;;;;;;4979020;28;20567;-58
2023/03/30 07:06:32;;;;;;;0.90;0.90;;;;;;;;;;4978453;28;20199;-56
2023/03/30 07:08:58;;;;;;;0.93;0.93;;;;;;;;;;4980100;28;20221;-57
2023/03/30 07:11:25;;;;;;;0.90;0.90;;;;;;;;;;4979776;28;20214;-56
2023/03/30 07:13:50;;;;;;;0.80;0.80;;;;;;;;;;4978163;28;20190;-57
2023/03/30 07:16:16;;;;;;;0.90;0.90;;;;;;;;;;4979529;28;20478;-57
2023/03/30 07:18:42;;;;;;;1.10;1.10;;;;;;;;;;4974904;28;20651;-57
2023/03/30 07:21:08;;;;;;;1.20;1.20;;;;;;;;;;4983317;28;20281;-56
2023/03/30 07:23:34;;;;;;;0.90;0.90;;;;;;;;;;4964842;28;20199;-57
2023/03/30 07:26:00;;;;;;;0.80;0.80;;;;;;;;;;4975280;28;20713;-56
2023/03/30 07:28:26;;;;;;;0.80;0.80;;;;;;;;;;4968846;28;20587;-57
2023/03/30 07:30:52;;;;;;;0.80;0.80;;;;;;;;;;4961446;28;20191;-56
2023/03/30 07:33:18;;;;;;;0.97;0.97;;;;;;;;;;4973359;28;20663;-57
2023/03/30 07:35:45;;;;;;;0.80;0.80;;;;;;;;;;4974585;28;20277;-57
2023/03/30 07:38:11;;;;;;;0.90;0.90;;;;;;;;;;4977345;28;20194;-57
2023/03/30 07:40:37;;;;;;;0.90;0.90;;;;;;;;;;4978493;28;21435;-57
2023/03/30 07:43:03;;;;;;;0.90;0.90;;;;;;;;;;4980263;28;20198;-56
2023/03/30 07:45:30;;;;;;;1.10;1.10;;;;;;;;;;4976658;28;20205;-57
2023/03/30 07:47:56;;;;;;;1.07;1.07;;;;;;;;;;4973838;28;22356;-57
2023/03/30 07:50:24;;;;;;;0.90;0.90;;;;;;;;;;4978902;28;20183;-57
2023/03/30 07:52:50;;;;;;;0.90;0.90;;;;;;;;;;4961844;28;20182;-57
2023/03/30 07:55:16;;;;;;;0.90;0.90;;;;;;;;;;4976464;28;20194;-57
2023/03/30 07:57:43;;;;;;;1.10;1.10;;;;;;;;;;4978585;28;20187;-58
2023/03/30 08:00:09;;;;;;;0.70;0.70;;;;;;;;;;4959546;28;20811;-57
2023/03/30 08:02:35;;;;;;;0.80;0.80;;;;;;;;;;4969261;28;20194;-57
2023/03/30 08:05:01;;;;;;;0.80;0.80;;;;;;;;;;4956462;28;20194;-57
2023/03/30 08:07:28;;;;;;;0.90;0.90;;;;;;;;;;4975771;28;20234;-58
2023/03/30 08:09:54;;;;;;;1.00;1.00;;;;;;;;;;4973932;28;20223;-57
2023/03/30 08:12:21;;;;;;;1.40;1.40;;;;;;;;;;4977017;28;20194;-57
2023/03/30 08:14:47;;;;;;;1.40;1.40;;;;;;;;;;4980474;28;20219;-57
2023/03/30 08:17:13;;;;;;;1.20;1.20;;;;;;;;;;4976144;28;20225;-57
2023/03/30 08:19:39;;;;;;;1.40;1.40;;;;;;;;;;4974526;28;20194;-57
2023/03/30 08:22:05;;;;;;;1.50;1.50;;;;;;;;;;4972541;28;20576;-57
2023/03/30 08:24:31;;;;;;;1.20;1.20;;;;;;;;;;4977385;28;20194;-57
2023/03/30 08:26:56;;;;;;;1.30;1.30;;;;;;;;;;4969067;28;21150;-57
2023/03/30 08:29:22;;;;;;;1.30;1.30;;;;;;;;;;4975516;28;20752;-57
2023/03/30 08:31:50;;;;;;;1.20;1.20;;;;;;;;;;4972435;28;20697;-57
2023/03/30 08:34:17;;;;;;;1.60;1.60;;;;;;;;;;4972603;28;20242;-56
2023/03/30 08:36:42;;;;;;;1.20;1.20;;;;;;;;;;4974901;28;20642;-57
2023/03/30 08:39:09;;;;;;;1.20;1.20;;;;;;;;;;4978270;28;20202;-57
2023/03/30 08:41:54;;;;;;;1.20;1.20;;;;;;;;;;4978340;28;20248;-56
2023/03/30 08:44:26;;;;;;;1.20;1.20;;;;;;;;;;4975598;28;20198;-57
2023/03/30 08:46:52;;;;;;;1.20;1.20;;;;;;;;;;4969751;28;20658;-57
2023/03/30 08:49:18;;;;;;;1.30;1.30;;;;;;;;;;4970469;28;20218;-57
2023/03/30 08:51:45;;;;;;;1.30;1.30;;;;;;;;;;4971696;28;20194;-57
2023/03/30 08:54:21;;;;;;;0.80;0.80;;;;;;;;;;4974397;28;20244;-57
2023/03/30 08:57:06;;;;;;;0.70;0.70;;;;;;;;;;4964535;28;20261;-57
2023/03/30 08:59:32;;;;;;;0.80;0.80;;;;;;;;;;4971398;28;20202;-58
2023/03/30 09:02:12;;;;;;;0.70;0.70;;;;;;;;;;4964302;28;20209;-58
2023/03/30 09:04:55;;;;;;;1.10;1.10;;;;;;;;;;4953868;28;20204;-58
2023/03/30 09:07:40;;;;;;;1.00;1.00;;;;;;;;;;4967491;28;20320;-57
2023/03/30 09:10:12;;;;;;;1.40;1.40;;;;;;;;;;4963778;28;20708;-58
2023/03/30 09:12:48;;;;;;;1.00;1.00;;;;;;;;;;4968981;28;20190;-58
2023/03/30 09:15:35;;;;;;;0.60;0.60;;;;;;;;;;4972401;28;20193;-57
2023/03/30 09:18:04;;;;;;;0.80;0.80;;;;;;;;;;4971064;28;20221;-57
2023/03/30 09:20:30;;;;;;;0.80;0.80;;;;;;;;;;4961638;28;20245;-56
2023/03/30 09:23:00;;;;;;;0.80;0.80;;;;;;;;;;4962219;28;20195;-57
2023/03/30 09:25:29;;;;;;;2.67;2.57;;;;;;;;;;4959707;28;20278;-57
2023/03/30 09:28:15;;;;;;;1.30;1.30;;;;;;;;;;4965784;28;20195;-56
2023/03/30 09:30:42;;;;;;;1.30;1.30;;;;;;;;;;4970252;28;20674;-56
2023/03/30 09:33:11;;;;;;;1.30;1.30;;;;;;;;;;4965907;28;20236;-57
2023/03/30 09:35:41;;;;;;;1.10;1.10;;;;;;;;;;4966710;28;20194;-56
2023/03/30 09:38:09;;;;;;;1.30;1.30;;;;;;;;;;4957687;28;20724;-57
2023/03/30 09:40:35;;;;;;;1.53;1.53;;;;;;;;;;4958626;28;20818;-57
2023/03/30 09:43:05;;;;;;;1.40;1.40;;;;;;;;;;4966478;28;20201;-57
2023/03/30 09:45:33;;;;;;;1.20;1.20;;;;;;;;;;4971775;28;20225;-57
2023/03/30 09:48:07;;;;;;;0.90;0.90;;;;;;;;;;4964961;28;20197;-56
2023/03/30 09:50:35;;;;;;;0.90;0.90;;;;;;;;;;4975238;28;20195;-56
2023/03/30 09:53:02;;;;;;;1.00;1.00;;;;;;;;;;4953806;28;20559;-57
2023/03/30 09:55:29;;;;;;;1.03;1.03;;;;;;;;;;4967952;28;20202;-56
2023/03/30 09:58:09;;;;;;;1.50;1.50;;;;;;;;;;4962737;28;20282;-56
2023/03/30 10:00:35;;;;;;;1.30;1.30;;;;;;;;;;4973767;28;20248;-56
2023/03/30 10:03:02;;;;;;;1.20;1.20;;;;;;;;;;4974775;28;20264;-56
2023/03/30 10:05:28;;;;;;;1.10;1.10;;;;;;;;;;4972895;28;25371;-56
2023/03/30 10:07:54;;;;;;;1.10;1.10;;;;;;;;;;4965832;28;20322;-56
2023/03/30 10:10:20;;;;;;;1.30;1.30;;;;;;;;;;4967474;28;20225;-55
2023/03/30 10:12:48;;;;;;;1.10;1.10;;;;;;;;;;4965650;28;21937;-57
2023/03/30 10:15:17;;;;;;;1.13;1.13;;;;;;;;;;4972090;28;20190;-56
2023/03/30 10:17:44;;;;;;;1.20;1.20;;;;;;;;;;4966284;28;20194;-56
2023/03/30 10:20:29;;;;;;;1.10;1.10;;;;;;;;;;4967202;28;20225;-56
2023/03/30 10:22:56;;;;;;;1.20;1.20;;;;;;;;;;4967867;28;20202;-56
2023/03/30 10:25:32;;;;;;;1.20;1.20;;;;;;;;;;4976301;28;20199;-56
2023/03/30 10:28:02;;;;;;;1.10;1.10;;;;;;;;;;4964501;28;20209;-57
2023/03/30 10:30:28;;;;;;;1.20;1.20;;;;;;;;;;4969246;28;20314;-56
2023/03/30 10:32:55;;;;;;;1.10;1.10;;;;;;;;;;4967193;28;20194;-57
2023/03/30 10:35:22;;;;;;;1.10;1.10;;;;;;;;;;4965454;28;20186;-57
2023/03/30 10:37:49;;;;;;;1.20;1.20;;;;;;;;;;4971313;28;20975;-57
2023/03/30 10:40:19;;;;;;;0.97;0.97;;;;;;;;;;4974523;28;20198;-56
2023/03/30 10:42:46;;;;;;;1.30;1.30;;;;;;;;;;4969094;28;20186;-56
2023/03/30 10:45:19;;;;;;;1.20;1.20;;;;;;;;;;4970307;28;20202;-57
2023/03/30 10:47:48;;;;;;;0.70;0.70;;;;;;;;;;4969935;28;20270;-57
2023/03/30 10:50:34;;;;;;;0.80;0.80;;;;;;;;;;4955081;28;20222;-58
2023/03/30 10:53:09;;;;;;;0.70;0.70;;;;;;;;;;4967052;28;20201;-57
2023/03/30 10:55:41;;;;;;;1.00;1.00;;;;;;;;;;4971482;28;20186;-57
2023/03/30 10:58:19;;;;;;;1.20;1.20;;;;;;;;;;4970751;28;20261;-57
2023/03/30 11:01:00;;;;;;;1.00;1.00;;;;;;;;;;4965162;28;20651;-57
2023/03/30 11:03:31;;;;;;;2.15;2.05;;;;;;;;;;4963821;28;20717;-57
2023/03/30 11:06:08;;;;;;;0.80;0.80;;;;;;;;;;4962432;28;20486;-57
2023/03/30 11:08:38;;;;;;;1.20;1.20;;;;;;;;;;4970625;28;20242;-60
2023/03/30 11:11:04;;;;;;;1.20;1.20;;;;;;;;;;4956189;28;20179;-55
2023/03/30 11:13:31;;;;;;;1.20;1.20;;;;;;;;;;4955674;28;20198;-55
2023/03/30 11:16:08;;;;;;;1.10;1.10;;;;;;;;;;4966655;28;20185;-55
2023/03/30 11:18:40;;;;;;;1.20;1.20;;;;;;;;;;4949106;28;20291;-58
2023/03/30 11:21:08;;;;;;;1.10;1.10;;;;;;;;;;4962922;28;20492;-59
2023/03/30 11:23:37;;;;;;;1.10;1.10;;;;;;;;;;4945458;28;20198;-55
2023/03/30 11:26:13;;;;;;;1.10;1.10;;;;;;;;;;4968443;28;20194;-55
2023/03/30 11:28:53;;;;;;;1.10;1.10;;;;;;;;;;4963938;28;20289;-54
2023/03/30 11:31:28;;;;;;;1.00;1.00;;;;;;;;;;4974283;28;20778;-54
2023/03/30 11:34:16;;;;;;;1.10;1.10;;;;;;;;;;4966655;28;20241;-53
2023/03/30 11:36:45;;;;;;;1.10;1.10;;;;;;;;;;4975264;28;20260;-54
2023/03/30 11:39:12;;;;;;;1.10;1.10;;;;;;;;;;4977144;28;20187;-53
2023/03/30 11:41:44;;;;;;;1.10;1.10;;;;;;;;;;4979335;28;20222;-53
2023/03/30 11:44:10;;;;;;;1.10;1.10;;;;;;;;;;4977694;28;20645;-54
2023/03/30 11:46:38;;;;;;;1.10;1.10;;;;;;;;;;4963968;28;20253;-53
2023/03/30 11:49:07;;;;;;;1.10;1.10;;;;;;;;;;4981117;28;20216;-53
2023/03/30 11:51:36;;;;;;;1.17;1.17;;;;;;;;;;4976050;28;20687;-53
2023/03/30 11:54:05;;;;;;;1.20;1.20;;;;;;;;;;4976300;28;20192;-54
2023/03/30 11:56:33;;;;;;;1.20;1.20;;;;;;;;;;4976211;28;20195;-54
2023/03/30 11:59:07;;;;;;;1.10;1.10;;;;;;;;;;4974877;28;20232;-53
2023/03/30 12:01:52;;;;;;;1.10;1.10;;;;;;;;;;4959599;28;20183;-53
2023/03/30 12:04:20;;;;;;;1.10;1.10;;;;;;;;;;4974866;28;20242;-54
2023/03/30 12:06:46;;;;;;;1.10;1.10;;;;;;;;;;4967972;28;20238;-53
2023/03/30 12:09:45;;;;;;;1.00;1.00;;;;;;;;;;4960995;28;20210;-53
2023/03/30 12:12:14;;;;;;;1.20;1.20;;;;;;;;;;4917692;28;20232;-55
2023/03/30 12:14:40;;;;;;;1.20;1.20;;;;;;;;;;4959578;28;20200;-55
2023/03/30 12:17:29;;;;;;;1.17;1.17;;;;;;;;;;4961424;28;20186;-55
2023/03/30 12:20:11;;;;;;;1.20;1.20;;;;;;;;;;4955454;28;20213;-55
2023/03/30 12:22:49;;;;;;;1.10;1.10;;;;;;;;;;4967477;28;20194;-56
2023/03/30 12:25:24;;;;;;;1.20;1.20;;;;;;;;;;4964199;28;20190;-53
2023/03/30 12:27:59;;;;;;;1.10;1.10;;;;;;;;;;4966254;28;20721;-53
2023/03/30 12:30:26;;;;;;;1.20;1.20;;;;;;;;;;4969835;28;20186;-54
2023/03/30 12:32:59;;;;;;;1.20;1.20;;;;;;;;;;4972219;28;20676;-54
2023/03/30 12:35:44;;;;;;;1.20;1.20;;;;;;;;;;4965385;28;20540;-53
2023/03/30 12:38:15;;;;;;;1.40;1.40;;;;;;;;;;4970146;28;20277;-53
2023/03/30 12:40:45;;;;;;;1.30;1.30;;;;;;;;;;4978500;28;20710;-53
2023/03/30 12:43:31;;;;;;;1.30;1.30;;;;;;;;;;4974079;28;20726;-53
2023/03/30 12:46:25;;;;;;;1.23;1.23;;;;;;;;;;4969442;28;20191;-54
2023/03/30 12:49:09;;;;;;;1.20;1.20;;;;;;;;;;4946310;28;20305;-53
2023/03/30 12:51:39;;;;;;;1.20;1.20;;;;;;;;;;4964222;28;20277;-54
2023/03/30 12:54:08;;;;;;;1.47;1.47;;;;;;;;;;4959482;28;20795;-52
2023/03/30 12:56:47;;;;;;;1.30;1.30;;;;;;;;;;4946650;28;20201;-53
2023/03/30 12:59:16;;;;;;;1.30;1.30;;;;;;;;;;4938744;28;20308;-52
2023/03/30 13:01:46;;;;;;;3.00;2.90;;;;;;;;;;4958112;28;20547;-54
2023/03/30 13:04:16;;;;;;;3.30;3.10;;;;;;;;;;4976283;28;20241;-56
2023/03/30 13:06:48;;;;;;;1.50;1.50;;;;;;;;;;4962901;28;20281;-55
2023/03/30 13:09:14;;;;;;;1.40;1.40;;;;;;;;;;4965628;28;20226;-54
2023/03/30 13:11:44;;;;;;;1.30;1.30;;;;;;;;;;4971062;28;20202;-53
2023/03/30 13:14:38;;;;;;;1.30;1.30;;;;;;;;;;4972713;28;20834;-54
2023/03/30 13:17:06;;;;;;;1.20;1.20;;;;;;;;;;4961037;28;20198;-54
2023/03/30 13:19:32;;;;;;;1.20;1.20;;;;;;;;;;4958334;28;20194;-54
2023/03/30 13:22:10;;;;;;;1.25;1.25;;;;;;;;;;4956282;28;20209;-52
2023/03/30 13:24:46;;;;;;;1.40;1.40;;;;;;;;;;4967443;28;20194;-54
2023/03/30 13:27:18;;;;;;;1.20;1.20;;;;;;;;;;4960506;28;20189;-54
2023/03/30 13:29:58;;;;;;;1.40;1.40;;;;;;;;;;4960204;28;22339;-55
2023/03/30 13:32:30;;;;;;;1.30;1.30;;;;;;;;;;4959242;28;25473;-56
2023/03/30 13:34:56;;;;;;;1.50;1.50;;;;;;;;;;4965136;28;20194;-54
2023/03/30 13:37:22;;;;;;;1.40;1.40;;;;;;;;;;4962589;28;20549;-56
2023/03/30 13:39:48;;;;;;;1.42;1.42;;;;;;;;;;4955338;28;20199;-54
2023/03/30 13:42:32;;;;;;;1.30;1.30;;;;;;;;;;4954477;28;20286;-54
2023/03/30 13:45:00;;;;;;;1.30;1.30;;;;;;;;;;4962096;28;20803;-54
2023/03/30 13:47:26;;;;;;;1.50;1.50;;;;;;;;;;4965347;28;20252;-54
2023/03/30 13:49:58;;;;;;;1.40;1.40;;;;;;;;;;4954884;28;20231;-53
2023/03/30 13:52:30;;;;;;;1.20;1.20;;;;;;;;;;4955341;28;20179;-53
2023/03/30 13:54:56;;;;;;;1.20;1.20;;;;;;;;;;4966560;28;20186;-54
2023/03/30 13:57:24;;;;;;;1.20;1.20;;;;;;;;;;4953753;28;20194;-53
2023/03/30 13:59:52;;;;;;;1.20;1.20;;;;;;;;;;4952424;28;20194;-54
2023/03/30 14:02:18;;;;;;;1.20;1.20;;;;;;;;;;4945375;28;20726;-54
2023/03/30 14:04:44;;;;;;;1.30;1.30;;;;;;;;;;4956078;28;20558;-52
2023/03/30 14:07:15;;;;;;;1.30;1.30;;;;;;;;;;4963617;28;20359;-53
2023/03/30 14:09:41;;;;;;;1.35;1.35;;;;;;;;;;4963868;28;20253;-52
2023/03/30 14:12:07;;;;;;;1.20;1.20;;;;;;;;;;4950659;28;20197;-53
2023/03/30 14:14:37;;;;;;;1.27;1.27;;;;;;;;;;4956832;28;20190;-53
2023/03/30 14:17:17;;;;;;;1.20;1.20;;;;;;;;;;4958320;28;20283;-53
2023/03/30 14:20:08;;;;;;;1.30;1.30;;;;;;;;;;4963272;28;20194;-52
2023/03/30 14:22:38;;;;;;;1.20;1.20;;;;;;;;;;4929737;28;20229;-53
2023/03/30 14:25:05;;;;;;;1.20;1.20;;;;;;;;;;4966486;28;20574;-53
2023/03/30 14:27:37;;;;;;;1.30;1.30;;;;;;;;;;4964450;28;20580;-52
2023/03/30 14:30:12;;;;;;;1.30;1.30;;;;;;;;;;4965963;28;20220;-51
2023/03/30 14:32:38;;;;;;;1.30;1.30;;;;;;;;;;4960652;28;20247;-52
2023/03/30 14:35:04;;;;;;;1.30;1.30;;;;;;;;;;4966782;28;20749;-53
2023/03/30 14:37:30;;;;;;;1.30;1.30;;;;;;;;;;4965929;28;20593;-51
2023/03/30 14:39:56;;;;;;;1.20;1.20;;;;;;;;;;4967230;28;20220;-51
2023/03/30 14:42:26;;;;;;;1.30;1.30;;;;;;;;;;4957077;28;21128;-52
2023/03/30 14:44:53;;;;;;;1.30;1.30;;;;;;;;;;4934770;28;20229;-52
2023/03/30 14:47:21;;;;;;;1.30;1.30;;;;;;;;;;4961954;28;20228;-53
2023/03/30 14:49:46;;;;;;;1.30;1.30;;;;;;;;;;4956397;28;20226;-52
2023/03/30 14:52:20;;;;;;;1.48;1.48;;;;;;;;;;4964391;28;20918;-54
2023/03/30 14:54:49;;;;;;;1.30;1.30;;;;;;;;;;4968593;28;20548;-53
2023/03/30 14:57:16;;;;;;;1.30;1.30;;;;;;;;;;4975717;28;20187;-54